Time,TemperatureF,DewpointF,PressureIn,WindDirection,WindDirectionDegrees,WindSpeedMPH,WindSpeedGustMPH,Humidity,HourlyPrecipIn,Conditions,Clouds,dailyrainin,SolarRadiationWatts/m^2,SoftwareType,DateUTC
2013-04-27 00:03:00,56.0,43.0,-100.00,South,170,0.0,2.0,62,0.00,,,0.00,0.000000,,2013-04-27 04:03:00,
2013-04-27 00:23:00,56.0,43.0,-100.00,North,353,1.0,3.0,62,0.00,,,0.00,0.000000,,2013-04-27 04:23:00,
2013-04-27 00:33:00,56.0,43.0,-100.00,North,353,1.0,3.0,62,0.00,,,0.00,0.000000,,2013-04-27 04:33:00,
2013-04-27 00:43:00,56.0,43.0,-100.00,North,353,1.0,3.0,62,0.00,,,0.00,0.000000,,2013-04-27 04:43:00,
2013-04-27 00:53:00,56.0,43.0,-100.00,North,353,1.0,3.0,62,0.00,,,0.00,0.000000,,2013-04-27 04:53:00,
2013-04-27 01:02:00,56.0,43.0,-100.00,North,353,1.0,3.0,62,0.00,,,0.00,0.000000,,2013-04-27 05:02:00,
2013-04-27 01:22:00,54.0,44.0,-100.00,South,171,1.0,2.0,70,0.00,,,0.00,0.000000,,2013-04-27 05:22:00,
2013-04-27 01:32:00,54.0,44.0,-100.00,South,171,1.0,2.0,70,0.00,,,0.00,0.000000,,2013-04-27 05:32:00,
2013-04-27 01:42:00,54.0,44.0,-100.00,South,171,1.0,2.0,70,0.00,,,0.00,0.000000,,2013-04-27 05:42:00,
2013-04-27 01:52:00,54.0,44.0,-100.00,South,171,1.0,2.0,70,0.00,,,0.00,0.000000,,2013-04-27 05:52:00,
2013-04-27 02:02:00,54.0,44.0,-100.00,South,171,1.0,2.0,70,0.00,,,0.00,0.000000,,2013-04-27 06:02:00,
2013-04-27 02:22:00,55.0,43.0,-100.00,NE,37,1.0,5.0,63,0.00,,,0.00,0.000000,,2013-04-27 06:22:00,
2013-04-27 02:32:00,55.0,43.0,-100.00,NE,37,1.0,5.0,63,0.00,,,0.00,0.000000,,2013-04-27 06:32:00,
2013-04-27 02:42:00,55.0,43.0,-100.00,NE,37,1.0,5.0,63,0.00,,,0.00,0.000000,,2013-04-27 06:42:00,
2013-04-27 02:52:00,55.0,43.0,-100.00,NE,37,1.0,5.0,63,0.00,,,0.00,0.000000,,2013-04-27 06:52:00,
2013-04-27 03:01:00,55.0,43.0,-100.00,NE,37,1.0,5.0,63,0.00,,,0.00,0.000000,,2013-04-27 07:01:00,
2013-04-27 03:22:00,54.0,44.0,-100.00,NNE,22,0.0,5.0,70,0.00,,,0.00,0.000000,,2013-04-27 07:22:00,
2013-04-27 03:32:00,54.0,44.0,-100.00,NNE,22,0.0,5.0,70,0.00,,,0.00,0.000000,,2013-04-27 07:32:00,
2013-04-27 03:42:00,54.0,44.0,-100.00,NNE,22,0.0,5.0,70,0.00,,,0.00,0.000000,,2013-04-27 07:42:00,
2013-04-27 03:52:00,54.0,44.0,-100.00,NNE,22,0.0,5.0,70,0.00,,,0.00,0.000000,,2013-04-27 07:52:00,
2013-04-27 04:02:00,54.0,44.0,-100.00,NNE,22,0.0,5.0,70,0.00,,,0.00,0.000000,,2013-04-27 08:02:00,
2013-04-27 04:22:00,55.0,43.0,-100.00,North,10,1.0,3.0,65,0.00,,,0.00,0.000000,,2013-04-27 08:22:00,
2013-04-27 04:33:00,55.0,43.0,-100.00,North,10,1.0,3.0,65,0.00,,,0.00,0.000000,,2013-04-27 08:33:00,
2013-04-27 04:42:00,55.0,43.0,-100.00,North,10,1.0,3.0,65,0.00,,,0.00,0.000000,,2013-04-27 08:42:00,
2013-04-27 04:52:00,55.0,43.0,-100.00,North,10,1.0,3.0,65,0.00,,,0.00,0.000000,,2013-04-27 08:52:00,
2013-04-27 05:01:00,55.0,43.0,-100.00,North,10,1.0,3.0,65,0.00,,,0.00,0.000000,,2013-04-27 09:01:00,
2013-04-27 05:33:00,53.0,45.0,-100.00,WSW,242,1.0,5.0,75,0.00,,,0.00,0.000000,,2013-04-27 09:33:00,
2013-04-27 05:43:00,53.0,45.0,-100.00,WSW,242,1.0,5.0,75,0.00,,,0.00,0.000000,,2013-04-27 09:43:00,
2013-04-27 05:53:00,53.0,45.0,-100.00,WSW,242,1.0,5.0,75,0.00,,,0.00,0.000000,,2013-04-27 09:53:00,
2013-04-27 06:03:00,53.0,45.0,-100.00,WSW,242,1.0,5.0,75,0.00,,,0.00,0.000000,,2013-04-27 10:03:00,
2013-04-27 06:33:00,53.0,46.0,-100.00,NNE,20,2.0,3.0,76,0.00,,,0.00,0.000000,,2013-04-27 10:33:00,
2013-04-27 06:42:00,53.0,46.0,-100.00,NNE,20,2.0,3.0,76,0.00,,,0.00,0.000000,,2013-04-27 10:42:00,
2013-04-27 06:52:00,53.0,46.0,-100.00,NNE,20,2.0,3.0,76,0.00,,,0.00,0.000000,,2013-04-27 10:52:00,
2013-04-27 07:02:00,53.0,46.0,-100.00,NNE,20,2.0,3.0,76,0.00,,,0.00,0.000000,,2013-04-27 11:02:00,
2013-04-27 07:32:00,52.0,46.0,-100.00,WSW,249,0.0,3.0,80,0.00,,,0.00,1.000000,,2013-04-27 11:32:00,
2013-04-27 07:42:00,52.0,46.0,-100.00,WSW,249,0.0,3.0,80,0.00,,,0.00,1.000000,,2013-04-27 11:42:00,
2013-04-27 07:52:00,52.0,46.0,-100.00,WSW,249,0.0,3.0,80,0.00,,,0.00,1.000000,,2013-04-27 11:52:00,
2013-04-27 08:01:00,52.0,46.0,-100.00,WSW,249,0.0,3.0,80,0.00,,,0.00,1.000000,,2013-04-27 12:01:00,
2013-04-27 08:32:00,53.0,49.0,-100.00,NE,47,0.0,2.0,87,0.00,,,0.00,26.000000,,2013-04-27 12:32:00,
2013-04-27 08:42:00,53.0,49.0,-100.00,NE,47,0.0,2.0,87,0.00,,,0.00,26.000000,,2013-04-27 12:42:00,
2013-04-27 08:52:00,53.0,49.0,-100.00,NE,47,0.0,2.0,87,0.00,,,0.00,26.000000,,2013-04-27 12:52:00,
2013-04-27 09:02:00,53.0,49.0,-100.00,NE,47,0.0,2.0,87,0.00,,,0.00,26.000000,,2013-04-27 13:02:00,
2013-04-27 09:32:00,54.0,47.0,-100.00,NNE,33,2.0,3.0,78,0.00,,,0.00,47.000000,,2013-04-27 13:32:00,
2013-04-27 09:42:00,54.0,47.0,-100.00,NNE,33,2.0,3.0,78,0.00,,,0.00,47.000000,,2013-04-27 13:42:00,
2013-04-27 09:52:00,54.0,47.0,-100.00,NNE,33,2.0,3.0,78,0.00,,,0.00,47.000000,,2013-04-27 13:52:00,
2013-04-27 10:02:00,54.0,47.0,-100.00,NNE,33,2.0,3.0,78,0.00,,,0.00,47.000000,,2013-04-27 14:02:00,
2013-04-27 10:32:00,56.0,48.0,-100.00,South,182,1.0,2.0,74,0.00,,,0.00,113.000000,,2013-04-27 14:32:00,
2013-04-27 10:42:00,56.0,48.0,-100.00,South,182,1.0,2.0,74,0.00,,,0.00,113.000000,,2013-04-27 14:42:00,
2013-04-27 10:52:00,56.0,48.0,-100.00,South,182,1.0,2.0,74,0.00,,,0.00,113.000000,,2013-04-27 14:52:00,
2013-04-27 11:01:00,56.0,48.0,-100.00,South,182,1.0,2.0,74,0.00,,,0.00,113.000000,,2013-04-27 15:01:00,
2013-04-27 11:33:00,57.0,50.0,-100.00,SSW,204,2.0,4.0,76,0.00,,,0.00,105.000000,,2013-04-27 15:33:00,
2013-04-27 11:43:00,57.0,50.0,-100.00,SSW,204,2.0,4.0,76,0.00,,,0.00,105.000000,,2013-04-27 15:43:00,
2013-04-27 11:53:00,57.0,50.0,-100.00,SSW,204,2.0,4.0,76,0.00,,,0.00,105.000000,,2013-04-27 15:53:00,
2013-04-27 12:03:00,57.0,50.0,-100.00,SSW,204,2.0,4.0,76,0.00,,,0.00,105.000000,,2013-04-27 16:03:00,
2013-04-27 12:23:00,58.0,49.0,-100.00,South,189,3.0,4.0,72,0.00,,,0.00,137.000000,,2013-04-27 16:23:00,
2013-04-27 12:33:00,58.0,49.0,-100.00,South,189,3.0,4.0,72,0.00,,,0.00,137.000000,,2013-04-27 16:33:00,
2013-04-27 12:42:00,58.0,49.0,-100.00,South,189,3.0,4.0,72,0.00,,,0.00,137.000000,,2013-04-27 16:42:00,
2013-04-27 12:53:00,58.0,49.0,-100.00,South,189,3.0,4.0,72,0.00,,,0.00,137.000000,,2013-04-27 16:53:00,
2013-04-27 13:02:00,58.0,49.0,-100.00,South,189,3.0,4.0,72,0.00,,,0.00,137.000000,,2013-04-27 17:02:00,
2013-04-27 13:32:00,60.0,50.0,-100.00,NW,324,2.0,4.0,69,0.00,,,0.00,233.000000,,2013-04-27 17:32:00,
2013-04-27 13:42:00,60.0,50.0,-100.00,NW,324,2.0,4.0,69,0.00,,,0.00,233.000000,,2013-04-27 17:42:00,
2013-04-27 13:53:00,60.0,50.0,-100.00,NW,324,2.0,4.0,69,0.00,,,0.00,233.000000,,2013-04-27 17:53:00,
2013-04-27 14:02:00,60.0,50.0,-100.00,NW,324,2.0,4.0,69,0.00,,,0.00,233.000000,,2013-04-27 18:02:00,
2013-04-27 14:22:00,60.0,49.0,-100.00,SW,231,1.0,3.0,67,0.00,,,0.00,192.000000,,2013-04-27 18:22:00,
2013-04-27 14:32:00,60.0,49.0,-100.00,SW,231,1.0,3.0,67,0.00,,,0.00,192.000000,,2013-04-27 18:32:00,
2013-04-27 14:42:00,60.0,49.0,-100.00,SW,231,1.0,3.0,67,0.00,,,0.00,192.000000,,2013-04-27 18:42:00,
2013-04-27 14:52:00,60.0,49.0,-100.00,SW,231,1.0,3.0,67,0.00,,,0.00,192.000000,,2013-04-27 18:52:00,
2013-04-27 15:02:00,60.0,49.0,-100.00,SW,231,1.0,3.0,67,0.00,,,0.00,192.000000,,2013-04-27 19:02:00,
2013-04-27 15:22:00,59.0,52.0,-100.00,South,191,2.0,5.0,77,0.00,,,0.00,114.000000,,2013-04-27 19:22:00,
2013-04-27 15:32:00,59.0,52.0,-100.00,South,191,2.0,5.0,77,0.00,,,0.00,114.000000,,2013-04-27 19:32:00,
2013-04-27 15:42:00,59.0,52.0,-100.00,South,191,2.0,5.0,77,0.00,,,0.00,114.000000,,2013-04-27 19:42:00,
2013-04-27 15:53:00,59.0,52.0,-100.00,South,191,2.0,5.0,77,0.00,,,0.00,114.000000,,2013-04-27 19:53:00,
2013-04-27 16:02:00,59.0,52.0,-100.00,South,191,2.0,5.0,77,0.00,,,0.00,114.000000,,2013-04-27 20:02:00,
2013-04-27 16:32:00,58.0,54.0,-100.00,SSE,159,3.0,4.0,86,0.00,,,0.00,90.000000,,2013-04-27 20:32:00,
2013-04-27 16:42:00,58.0,54.0,-100.00,SSE,159,3.0,4.0,86,0.00,,,0.00,90.000000,,2013-04-27 20:42:00,
2013-04-27 16:52:00,58.0,54.0,-100.00,SSE,159,3.0,4.0,86,0.00,,,0.00,90.000000,,2013-04-27 20:52:00,
2013-04-27 17:02:00,58.0,54.0,-100.00,SSE,159,3.0,4.0,86,0.00,,,0.00,90.000000,,2013-04-27 21:02:00,
2013-04-27 17:22:00,58.0,55.0,-100.00,SSE,166,2.0,4.0,89,0.02,,,0.02,64.000000,,2013-04-27 21:22:00,
2013-04-27 17:33:00,58.0,55.0,-100.00,SSE,166,2.0,4.0,89,0.02,,,0.02,64.000000,,2013-04-27 21:33:00,
2013-04-27 17:43:00,58.0,55.0,-100.00,SSE,166,2.0,4.0,89,0.02,,,0.02,64.000000,,2013-04-27 21:43:00,
2013-04-27 17:53:00,58.0,55.0,-100.00,SSE,166,2.0,4.0,89,0.02,,,0.02,64.000000,,2013-04-27 21:53:00,
2013-04-27 18:03:00,58.0,55.0,-100.00,SSE,166,2.0,4.0,89,0.02,,,0.02,64.000000,,2013-04-27 22:03:00,
2013-04-27 18:32:00,56.0,55.0,-100.00,SE,141,4.0,7.0,96,0.10,,,0.12,42.000000,,2013-04-27 22:32:00,
2013-04-27 18:42:00,56.0,55.0,-100.00,SE,141,4.0,7.0,96,0.10,,,0.12,42.000000,,2013-04-27 22:42:00,
2013-04-27 18:53:00,56.0,55.0,-100.00,SE,141,4.0,7.0,96,0.10,,,0.12,42.000000,,2013-04-27 22:53:00,
2013-04-27 19:02:00,56.0,55.0,-100.00,SE,141,4.0,7.0,96,0.10,,,0.12,42.000000,,2013-04-27 23:02:00,
2013-04-27 19:22:00,57.0,56.0,-100.00,South,184,4.0,7.0,96,0.00,,,0.12,54.000000,,2013-04-27 23:22:00,
2013-04-27 19:32:00,57.0,56.0,-100.00,South,184,4.0,7.0,96,0.00,,,0.12,54.000000,,2013-04-27 23:32:00,
2013-04-27 19:42:00,57.0,56.0,-100.00,South,184,4.0,7.0,96,0.00,,,0.12,54.000000,,2013-04-27 23:42:00,
2013-04-27 19:52:00,57.0,56.0,-100.00,South,184,4.0,7.0,96,0.00,,,0.12,54.000000,,2013-04-27 23:52:00,
2013-04-27 20:01:00,57.0,56.0,-100.00,South,184,4.0,7.0,96,0.00,,,0.12,54.000000,,2013-04-28 00:01:00,
2013-04-27 20:22:00,55.0,53.0,-100.00,SSW,194,4.0,7.0,94,0.00,,,0.12,21.000000,,2013-04-28 00:22:00,
2013-04-27 20:32:00,55.0,53.0,-100.00,SSW,194,4.0,7.0,94,0.00,,,0.12,21.000000,,2013-04-28 00:32:00,
2013-04-27 20:43:00,55.0,53.0,-100.00,SSW,194,4.0,7.0,94,0.00,,,0.12,21.000000,,2013-04-28 00:43:00,
2013-04-27 20:52:00,55.0,53.0,-100.00,SSW,194,4.0,7.0,94,0.00,,,0.12,21.000000,,2013-04-28 00:52:00,
2013-04-27 21:02:00,55.0,53.0,-100.00,SSW,194,4.0,7.0,94,0.00,,,0.12,21.000000,,2013-04-28 01:02:00,
2013-04-27 21:22:00,54.0,53.0,-100.00,SSE,161,2.0,6.0,96,0.00,,,0.12,0.000000,,2013-04-28 01:22:00,
2013-04-27 21:32:00,54.0,53.0,-100.00,SSE,161,2.0,6.0,96,0.00,,,0.12,0.000000,,2013-04-28 01:32:00,
2013-04-27 21:42:00,54.0,53.0,-100.00,SSE,161,2.0,6.0,96,0.00,,,0.12,0.000000,,2013-04-28 01:42:00,
2013-04-27 21:52:00,54.0,53.0,-100.00,SSE,161,2.0,6.0,96,0.00,,,0.12,0.000000,,2013-04-28 01:52:00,
2013-04-27 22:02:00,54.0,53.0,-100.00,SSE,161,2.0,6.0,96,0.00,,,0.12,0.000000,,2013-04-28 02:02:00,
2013-04-27 22:32:00,54.0,53.0,-100.00,SW,223,2.0,4.0,98,0.00,,,0.12,0.000000,,2013-04-28 02:32:00,
2013-04-27 22:42:00,54.0,53.0,-100.00,SW,223,2.0,4.0,98,0.00,,,0.12,0.000000,,2013-04-28 02:42:00,
2013-04-27 22:52:00,54.0,53.0,-100.00,SW,223,2.0,4.0,98,0.00,,,0.12,0.000000,,2013-04-28 02:52:00,
2013-04-27 23:01:00,54.0,53.0,-100.00,SW,223,2.0,4.0,98,0.00,,,0.12,0.000000,,2013-04-28 03:01:00,
2013-04-27 23:22:00,54.0,53.0,-100.00,WSW,239,1.0,4.0,96,0.01,,,0.13,0.000000,,2013-04-28 03:22:00,
2013-04-27 23:33:00,54.0,53.0,-100.00,WSW,239,1.0,4.0,96,0.01,,,0.13,0.000000,,2013-04-28 03:33:00,
2013-04-27 23:43:00,54.0,53.0,-100.00,WSW,239,1.0,4.0,96,0.01,,,0.13,0.000000,,2013-04-28 03:43:00,
2013-04-27 23:53:00,54.0,53.0,-100.00,WSW,239,1.0,4.0,96,0.01,,,0.13,0.000000,,2013-04-28 03:53:00,